PWSweather.com
Personal Weather Stations
Station Observations
KPASPRIN10
East Vincent, East Vincent, PA 19475

East VincentEast Vincent, PA 19475

Lat: 40.170948, Lon: -75.629681

Elevation: 404

Station Type: Davis VP2

http://www.evweather.com

High Low Average
Temperature 38.0°F3.3°C 30.1°F-1.1°C 33.8°F1.0°C
Dew Point 31.8°F-0.1°C 20.8°F-6.2°C 26.8°F-2.9°C
Winds 15.0 mph 24.1 kmh Calm Calm 7.0 mph WNW11.3 kmh WNW
Wind Gusts 20.7 mph33.3 kmh 1.2 mph1.9 kmh 10.0 mph16.1 kmh
Humidity 96% 53% 77%
Pressure 29.78 in1008.5 mb 29.68 in1005.1 mb -
Precipitation 0.15 in3.8 mm - -
Hour Temp Dew Point Humidity Winds Wind Gusts Pressure Precip Precip Rate Daily Precip Total
12:00 AM 32.6°F0.3°C 31.3°F-0.4°C 95% 1.2 mph NNW1.9 kmh NNW 1.2 mph1.9 kmh 29.76 in1007.8 mb - 0.00 in0.0 mm 0.00 in0.0 mm
12:10 AM 32.6°F0.3°C 31.3°F-0.4°C 95% 1.2 mph NE1.9 kmh NE 1.2 mph1.9 kmh 29.76 in1007.8 mb - 0.00 in0.0 mm 0.00 in0.0 mm
12:20 AM 32.6°F0.3°C 31.6°F-0.2°C 96% 1.2 mph NNW1.9 kmh NNW 3.5 mph5.6 kmh 29.75 in1007.5 mb - 0.00 in0.0 mm 0.00 in0.0 mm
12:30 AM 32.6°F0.3°C 31.6°F-0.2°C 96% 2.3 mph N3.7 kmh N 3.5 mph5.6 kmh 29.74 in1007.1 mb - 0.00 in0.0 mm 0.00 in0.0 mm
12:40 AM 32.6°F0.3°C 31.6°F-0.2°C 96% Calm Calm 2.3 mph3.7 kmh 29.74 in1007.1 mb - 0.00 in0.0 mm 0.00 in0.0 mm
12:50 AM 32.6°F0.3°C 31.6°F-0.2°C 96% 2.3 mph NNW3.7 kmh NNW 4.6 mph7.4 kmh 29.73 in1006.8 mb - 0.00 in0.0 mm 0.00 in0.0 mm
01:00 AM 32.7°F0.4°C 31.7°F-0.2°C 96% 2.3 mph NW3.7 kmh NW 3.5 mph5.6 kmh 29.73 in1006.8 mb - 0.00 in0.0 mm 0.00 in0.0 mm
01:10 AM 32.7°F0.4°C 31.7°F-0.2°C 96% 2.3 mph NW3.7 kmh NW 3.5 mph5.6 kmh 29.74 in1007.1 mb - 0.00 in0.0 mm 0.00 in0.0 mm
01:20 AM 32.7°F0.4°C 31.7°F-0.2°C 96% Calm Calm 1.2 mph1.9 kmh 29.73 in1006.8 mb - 0.00 in0.0 mm 0.00 in0.0 mm
01:30 AM 32.8°F0.4°C 31.8°F-0.1°C 96% 1.2 mph N1.9 kmh N 3.5 mph5.6 kmh 29.73 in1006.8 mb - 0.00 in0.0 mm 0.00 in0.0 mm
01:40 AM 32.8°F0.4°C 31.8°F-0.1°C 96% 2.3 mph NW3.7 kmh NW 4.6 mph7.4 kmh 29.73 in1006.8 mb - 0.00 in0.0 mm 0.00 in0.0 mm
01:50 AM 32.8°F0.4°C 31.8°F-0.1°C 96% 2.3 mph NW3.7 kmh NW 3.5 mph5.6 kmh 29.73 in1006.8 mb - 0.00 in0.0 mm 0.00 in0.0 mm
02:00 AM 32.8°F0.4°C 31.8°F-0.1°C 96% 3.5 mph NW5.6 kmh NW 5.8 mph9.3 kmh 29.73 in1006.8 mb - 0.00 in0.0 mm 0.00 in0.0 mm
02:10 AM 32.8°F0.4°C 31.8°F-0.1°C 96% 4.6 mph NW7.4 kmh NW 8.1 mph13.0 kmh 29.73 in1006.8 mb - 0.00 in0.0 mm 0.00 in0.0 mm
02:20 AM 32.8°F0.4°C 31.8°F-0.1°C 96% 5.8 mph NW9.3 kmh NW 10.4 mph16.7 kmh 29.72 in1006.4 mb - 0.00 in0.0 mm 0.00 in0.0 mm
02:30 AM 32.7°F0.4°C 31.7°F-0.2°C 96% 4.6 mph NW7.4 kmh NW 6.9 mph11.1 kmh 29.72 in1006.4 mb - 0.00 in0.0 mm 0.00 in0.0 mm
02:40 AM 32.7°F0.4°C 31.7°F-0.2°C 96% 5.8 mph WNW9.3 kmh WNW 8.1 mph13.0 kmh 29.72 in1006.4 mb - 0.00 in0.0 mm 0.00 in0.0 mm
02:50 AM 32.6°F0.3°C 31.6°F-0.2°C 96% 3.5 mph NW5.6 kmh NW 5.8 mph9.3 kmh 29.71 in1006.1 mb - 0.00 in0.0 mm 0.00 in0.0 mm
03:00 AM 32.6°F0.3°C 31.6°F-0.2°C 96% 5.8 mph NW9.3 kmh NW 9.2 mph14.8 kmh 29.71 in1006.1 mb - 0.00 in0.0 mm 0.00 in0.0 mm
03:10 AM 32.5°F0.3°C 31.5°F-0.3°C 96% 4.6 mph NW7.4 kmh NW 8.1 mph13.0 kmh 29.70 in1005.8 mb - 0.00 in0.0 mm 0.00 in0.0 mm
03:20 AM 32.5°F0.3°C 31.5°F-0.3°C 96% 3.5 mph NW5.6 kmh NW 4.6 mph7.4 kmh 29.70 in1005.8 mb - 0.00 in0.0 mm 0.00 in0.0 mm
03:30 AM 32.5°F0.3°C 31.5°F-0.3°C 96% 5.8 mph NW9.3 kmh NW 8.1 mph13.0 kmh 29.69 in1005.4 mb - 0.00 in0.0 mm 0.00 in0.0 mm
03:40 AM 32.5°F0.3°C 31.5°F-0.3°C 96% 4.6 mph NW7.4 kmh NW 10.4 mph16.7 kmh 29.69 in1005.4 mb - 0.00 in0.0 mm 0.00 in0.0 mm
03:50 AM 32.4°F0.2°C 31.4°F-0.3°C 96% 5.8 mph NW9.3 kmh NW 10.4 mph16.7 kmh 29.69 in1005.4 mb - 0.00 in0.0 mm 0.00 in0.0 mm
04:00 AM 32.5°F0.3°C 31.5°F-0.3°C 96% 4.6 mph NW7.4 kmh NW 9.2 mph14.8 kmh 29.69 in1005.4 mb - 0.00 in0.0 mm 0.00 in0.0 mm
04:10 AM 32.5°F0.3°C 31.5°F-0.3°C 96% 5.8 mph NW9.3 kmh NW 8.1 mph13.0 kmh 29.69 in1005.4 mb - 0.00 in0.0 mm 0.00 in0.0 mm
04:20 AM 32.5°F0.3°C 31.5°F-0.3°C 96% 4.6 mph NW7.4 kmh NW 10.4 mph16.7 kmh 29.69 in1005.4 mb - 0.00 in0.0 mm 0.00 in0.0 mm
04:30 AM 32.5°F0.3°C 31.5°F-0.3°C 96% 3.5 mph NW5.6 kmh NW 3.5 mph5.6 kmh 29.68 in1005.1 mb - 0.00 in0.0 mm 0.00 in0.0 mm
04:40 AM 32.5°F0.3°C 31.5°F-0.3°C 96% 6.9 mph NW11.1 kmh NW 10.4 mph16.7 kmh 29.68 in1005.1 mb - 0.00 in0.0 mm 0.00 in0.0 mm
04:50 AM 32.5°F0.3°C 31.5°F-0.3°C 96% 6.9 mph NW11.1 kmh NW 11.5 mph18.5 kmh 29.68 in1005.1 mb - 0.00 in0.0 mm 0.00 in0.0 mm
05:00 AM 32.5°F0.3°C 31.5°F-0.3°C 96% 5.8 mph NW9.3 kmh NW 8.1 mph13.0 kmh 29.68 in1005.1 mb - 0.00 in0.0 mm 0.00 in0.0 mm
05:10 AM 32.5°F0.3°C 31.5°F-0.3°C 96% 5.8 mph NW9.3 kmh NW 9.2 mph14.8 kmh 29.68 in1005.1 mb - 0.00 in0.0 mm 0.00 in0.0 mm
05:20 AM 32.6°F0.3°C 31.6°F-0.2°C 96% 4.6 mph NW7.4 kmh NW 5.8 mph9.3 kmh 29.68 in1005.1 mb - 0.00 in0.0 mm 0.00 in0.0 mm
05:30 AM 32.6°F0.3°C 31.6°F-0.2°C 96% 5.8 mph NW9.3 kmh NW 6.9 mph11.1 kmh 29.68 in1005.1 mb - 0.00 in0.0 mm 0.00 in0.0 mm
05:40 AM 32.5°F0.3°C 31.2°F-0.4°C 95% 6.9 mph NW11.1 kmh NW 9.2 mph14.8 kmh 29.68 in1005.1 mb - 0.00 in0.0 mm 0.00 in0.0 mm
05:50 AM 32.5°F0.3°C 31.2°F-0.4°C 95% 5.8 mph NW9.3 kmh NW 10.4 mph16.7 kmh 29.68 in1005.1 mb - 0.00 in0.0 mm 0.00 in0.0 mm
06:00 AM 32.4°F0.2°C 31.1°F-0.5°C 95% 5.8 mph WNW9.3 kmh WNW 10.4 mph16.7 kmh 29.68 in1005.1 mb - 0.00 in0.0 mm 0.00 in0.0 mm
06:10 AM 32.4°F0.2°C 31.4°F-0.3°C 96% 3.5 mph WNW5.6 kmh WNW 3.5 mph5.6 kmh 29.68 in1005.1 mb - 0.00 in0.0 mm 0.00 in0.0 mm
06:20 AM 32.4°F0.2°C 31.4°F-0.3°C 96% 4.6 mph WNW7.4 kmh WNW 8.1 mph13.0 kmh 29.69 in1005.4 mb - 0.00 in0.0 mm 0.00 in0.0 mm
06:30 AM 32.4°F0.2°C 31.4°F-0.3°C 96% 6.9 mph NW11.1 kmh NW 9.2 mph14.8 kmh 29.69 in1005.4 mb - 0.00 in0.0 mm 0.00 in0.0 mm
06:40 AM 32.3°F0.2°C 31.3°F-0.4°C 96% 4.6 mph NW7.4 kmh NW 8.1 mph13.0 kmh 29.69 in1005.4 mb - 0.00 in0.0 mm 0.00 in0.0 mm
06:50 AM 32.3°F0.2°C 31.0°F-0.6°C 95% 3.5 mph NW5.6 kmh NW 5.8 mph9.3 kmh 29.69 in1005.4 mb - 0.00 in0.0 mm 0.00 in0.0 mm
07:00 AM 32.2°F0.1°C 30.9°F-0.6°C 95% 4.6 mph NW7.4 kmh NW 9.2 mph14.8 kmh 29.70 in1005.8 mb - 0.00 in0.0 mm 0.00 in0.0 mm
07:10 AM 32.1°F0.1°C 30.8°F-0.7°C 95% 5.8 mph NW9.3 kmh NW 8.1 mph13.0 kmh 29.70 in1005.8 mb - 0.00 in0.0 mm 0.00 in0.0 mm
07:20 AM 32.1°F0.1°C 30.8°F-0.7°C 95% 4.6 mph NW7.4 kmh NW 5.8 mph9.3 kmh 29.70 in1005.8 mb - 0.00 in0.0 mm 0.00 in0.0 mm
07:30 AM 32.0°F0.0°C 31.0°F-0.6°C 96% 5.8 mph NW9.3 kmh NW 11.5 mph18.5 kmh 29.70 in1005.8 mb - 0.00 in0.0 mm 0.00 in0.0 mm
07:40 AM 32.0°F0.0°C 31.0°F-0.6°C 96% 4.6 mph WNW7.4 kmh WNW 8.1 mph13.0 kmh 29.70 in1005.8 mb - 0.00 in0.0 mm 0.00 in0.0 mm
07:50 AM 31.9°F-0.1°C 30.6°F-0.8°C 95% 5.8 mph NW9.3 kmh NW 9.2 mph14.8 kmh 29.71 in1006.1 mb - 0.00 in0.0 mm 0.00 in0.0 mm
08:00 AM 31.7°F-0.2°C 30.5°F-0.8°C 95% 5.8 mph WNW9.3 kmh WNW 6.9 mph11.1 kmh 29.71 in1006.1 mb - 0.00 in0.0 mm 0.00 in0.0 mm
08:10 AM 31.7°F-0.2°C 30.4°F-0.9°C 95% 6.9 mph NW11.1 kmh NW 12.7 mph20.4 kmh 29.71 in1006.1 mb - 0.00 in0.0 mm 0.00 in0.0 mm
08:20 AM 31.7°F-0.2°C 30.4°F-0.9°C 95% 5.8 mph NW9.3 kmh NW 9.2 mph14.8 kmh 29.71 in1006.1 mb - 0.00 in0.0 mm 0.00 in0.0 mm
08:30 AM 31.7°F-0.2°C 30.4°F-0.9°C 95% 6.9 mph WNW11.1 kmh WNW 9.2 mph14.8 kmh 29.71 in1006.1 mb - 0.00 in0.0 mm 0.00 in0.0 mm
08:40 AM 31.8°F-0.1°C 30.5°F-0.8°C 95% 8.1 mph NW13.0 kmh NW 9.2 mph14.8 kmh 29.72 in1006.4 mb - 0.00 in0.0 mm 0.00 in0.0 mm
08:50 AM 32.1°F0.1°C 30.5°F-0.8°C 94% 6.9 mph NW11.1 kmh NW 10.4 mph16.7 kmh 29.72 in1006.4 mb - 0.00 in0.0 mm 0.00 in0.0 mm
09:00 AM 32.4°F0.2°C 30.6°F-0.8°C 93% 5.8 mph NW9.3 kmh NW 8.1 mph13.0 kmh 29.71 in1006.1 mb - 0.00 in0.0 mm 0.00 in0.0 mm
09:10 AM 32.5°F0.3°C 30.2°F-1.0°C 91% 5.8 mph WNW9.3 kmh WNW 8.1 mph13.0 kmh 29.72 in1006.4 mb - 0.00 in0.0 mm 0.00 in0.0 mm
09:20 AM 32.7°F0.4°C 29.8°F-1.2°C 89% 8.1 mph NW13.0 kmh NW 13.8 mph22.2 kmh 29.72 in1006.4 mb - 0.00 in0.0 mm 0.00 in0.0 mm
09:30 AM 32.9°F0.5°C 29.7°F-1.3°C 88% 10.4 mph NW16.7 kmh NW 16.1 mph25.9 kmh 29.72 in1006.4 mb - 0.00 in0.0 mm 0.00 in0.0 mm
09:40 AM 33.0°F0.6°C 29.0°F-1.7°C 85% 10.4 mph NW16.7 kmh NW 12.7 mph20.4 kmh 29.72 in1006.4 mb - 0.00 in0.0 mm 0.00 in0.0 mm
09:50 AM 33.4°F0.8°C 29.1°F-1.6°C 84% 9.2 mph NW14.8 kmh NW 11.5 mph18.5 kmh 29.72 in1006.4 mb - 0.00 in0.0 mm 0.00 in0.0 mm
10:00 AM 33.7°F0.9°C 29.1°F-1.6°C 83% 10.4 mph WNW16.7 kmh WNW 17.3 mph27.8 kmh 29.72 in1006.4 mb - 0.01 in0.3 mm 0.01 in0.3 mm
10:10 AM 33.4°F0.8°C 28.5°F-1.9°C 82% 8.1 mph NW13.0 kmh NW 10.4 mph16.7 kmh 29.73 in1006.8 mb - 0.01 in0.3 mm 0.02 in0.5 mm
10:20 AM 33.4°F0.8°C 28.8°F-1.8°C 83% 10.4 mph WNW16.7 kmh WNW 12.7 mph20.4 kmh 29.73 in1006.8 mb - 0.01 in0.3 mm 0.03 in0.8 mm
10:30 AM 33.0°F0.6°C 27.8°F-2.3°C 81% 10.4 mph NW16.7 kmh NW 17.3 mph27.8 kmh 29.73 in1006.8 mb - 0.00 in0.0 mm 0.03 in0.8 mm
10:40 AM 33.0°F0.6°C 27.8°F-2.3°C 81% 11.5 mph WNW18.5 kmh WNW 17.3 mph27.8 kmh 29.73 in1006.8 mb - 0.01 in0.3 mm 0.04 in1.0 mm
10:50 AM 33.2°F0.7°C 27.7°F-2.4°C 80% 8.1 mph NW13.0 kmh NW 11.5 mph18.5 kmh 29.73 in1006.8 mb - 0.01 in0.3 mm 0.05 in1.3 mm
11:00 AM 33.9°F1.1°C 27.8°F-2.3°C 78% 13.8 mph NW22.2 kmh NW 17.3 mph27.8 kmh 29.73 in1006.8 mb - 0.01 in0.3 mm 0.06 in1.5 mm
11:10 AM 33.9°F1.1°C 27.2°F-2.7°C 76% 12.7 mph NW20.4 kmh NW 13.8 mph22.2 kmh 29.73 in1006.8 mb - 0.01 in0.3 mm 0.07 in1.8 mm
11:20 AM 34.3°F1.3°C 27.2°F-2.7°C 75% 10.4 mph NW16.7 kmh NW 15.0 mph24.1 kmh 29.73 in1006.8 mb - 0.01 in0.3 mm 0.08 in2.0 mm
11:30 AM 34.8°F1.6°C 27.0°F-2.8°C 73% 10.4 mph NW16.7 kmh NW 17.3 mph27.8 kmh 29.73 in1006.8 mb - 0.01 in0.3 mm 0.09 in2.3 mm
11:40 AM 35.2°F1.8°C 27.7°F-2.4°C 74% 10.4 mph NNW16.7 kmh NNW 19.6 mph31.5 kmh 29.73 in1006.8 mb - 0.01 in0.3 mm 0.10 in2.5 mm
11:50 AM 35.1°F1.7°C 27.0°F-2.8°C 72% 13.8 mph NNW22.2 kmh NNW 17.3 mph27.8 kmh 29.73 in1006.8 mb - 0.01 in0.3 mm 0.11 in2.8 mm
12:00 PM 35.7°F2.1°C 27.9°F-2.3°C 73% 11.5 mph NW18.5 kmh NW 19.6 mph31.5 kmh 29.73 in1006.8 mb - 0.00 in0.0 mm 0.11 in2.8 mm
12:10 PM 36.1°F2.3°C 27.6°F-2.4°C 71% 9.2 mph NW14.8 kmh NW 13.8 mph22.2 kmh 29.73 in1006.8 mb - 0.01 in0.3 mm 0.12 in3.0 mm
12:20 PM 36.5°F2.5°C 27.3°F-2.6°C 69% 9.2 mph NNW14.8 kmh NNW 13.8 mph22.2 kmh 29.73 in1006.8 mb - 0.01 in0.3 mm 0.13 in3.3 mm
12:30 PM 36.3°F2.4°C 27.8°F-2.3°C 71% 11.5 mph NW18.5 kmh NW 18.4 mph29.6 kmh 29.73 in1006.8 mb - 0.00 in0.0 mm 0.13 in3.3 mm
12:40 PM 36.9°F2.7°C 28.0°F-2.2°C 70% 10.4 mph NW16.7 kmh NW 20.7 mph33.3 kmh 29.73 in1006.8 mb - 0.01 in0.3 mm 0.14 in3.6 mm
12:50 PM 37.6°F3.1°C 29.0°F-1.7°C 71% 10.4 mph NW16.7 kmh NW 16.1 mph25.9 kmh 29.74 in1007.1 mb - 0.00 in0.0 mm 0.14 in3.6 mm
01:00 PM 37.5°F3.1°C 27.5°F-2.5°C 67% 9.2 mph W14.8 kmh W 18.4 mph29.6 kmh 29.73 in1006.8 mb - 0.01 in0.3 mm 0.15 in3.8 mm
01:10 PM 37.0°F2.8°C 27.7°F-2.4°C 69% 10.4 mph NW16.7 kmh NW 12.7 mph20.4 kmh 29.74 in1007.1 mb - 0.00 in0.0 mm 0.15 in3.8 mm
01:20 PM 37.3°F2.9°C 27.3°F-2.6°C 67% 8.1 mph NW13.0 kmh NW 10.4 mph16.7 kmh 29.74 in1007.1 mb - 0.00 in0.0 mm 0.15 in3.8 mm
01:30 PM 37.3°F2.9°C 27.0°F-2.8°C 66% 8.1 mph WNW13.0 kmh WNW 11.5 mph18.5 kmh 29.74 in1007.1 mb - 0.00 in0.0 mm 0.15 in3.8 mm
01:40 PM 37.2°F2.9°C 26.9°F-2.8°C 66% 11.5 mph NW18.5 kmh NW 16.1 mph25.9 kmh 29.74 in1007.1 mb - 0.00 in0.0 mm 0.15 in3.8 mm
01:50 PM 37.0°F2.8°C 27.1°F-2.7°C 67% 12.7 mph WNW20.4 kmh WNW 16.1 mph25.9 kmh 29.74 in1007.1 mb - 0.00 in0.0 mm 0.15 in3.8 mm
02:00 PM 36.8°F2.7°C 26.5°F-3.1°C 66% 8.1 mph NW13.0 kmh NW 17.3 mph27.8 kmh 29.75 in1007.5 mb - 0.00 in0.0 mm 0.15 in3.8 mm
02:10 PM 36.6°F2.6°C 25.9°F-3.4°C 65% 15.0 mph NW24.1 kmh NW 18.4 mph29.6 kmh 29.75 in1007.5 mb - 0.00 in0.0 mm 0.15 in3.8 mm
02:20 PM 36.5°F2.5°C 25.8°F-3.4°C 65% 12.7 mph NW20.4 kmh NW 15.0 mph24.1 kmh 29.75 in1007.5 mb - 0.00 in0.0 mm 0.15 in3.8 mm
02:30 PM 36.6°F2.6°C 26.3°F-3.2°C 66% 10.4 mph NW16.7 kmh NW 13.8 mph22.2 kmh 29.75 in1007.5 mb - 0.00 in0.0 mm 0.15 in3.8 mm
02:40 PM 36.8°F2.7°C 26.1°F-3.3°C 65% 8.1 mph WNW13.0 kmh WNW 10.4 mph16.7 kmh 29.75 in1007.5 mb - 0.00 in0.0 mm 0.15 in3.8 mm
02:50 PM 36.8°F2.7°C 24.6°F-4.1°C 61% 11.5 mph NW18.5 kmh NW 15.0 mph24.1 kmh 29.75 in1007.5 mb - 0.00 in0.0 mm 0.15 in3.8 mm
03:00 PM 36.7°F2.6°C 24.9°F-3.9°C 62% 12.7 mph W20.4 kmh W 19.6 mph31.5 kmh 29.75 in1007.5 mb - 0.00 in0.0 mm 0.15 in3.8 mm
03:10 PM 36.7°F2.6°C 24.5°F-4.2°C 61% 5.8 mph NW9.3 kmh NW 10.4 mph16.7 kmh 29.75 in1007.5 mb - 0.00 in0.0 mm 0.15 in3.8 mm
03:20 PM 37.1°F2.8°C 25.3°F-3.7°C 62% 5.8 mph NW9.3 kmh NW 9.2 mph14.8 kmh 29.75 in1007.5 mb - 0.00 in0.0 mm 0.15 in3.8 mm
03:30 PM 38.0°F3.3°C 24.5°F-4.2°C 58% 9.2 mph WNW14.8 kmh WNW 16.1 mph25.9 kmh 29.75 in1007.5 mb - 0.00 in0.0 mm 0.15 in3.8 mm
03:40 PM 37.7°F3.2°C 23.8°F-4.6°C 57% 9.2 mph NNW14.8 kmh NNW 20.7 mph33.3 kmh 29.75 in1007.5 mb - 0.00 in0.0 mm 0.15 in3.8 mm
03:50 PM 37.3°F2.9°C 23.9°F-4.5°C 58% 9.2 mph NW14.8 kmh NW 10.4 mph16.7 kmh 29.75 in1007.5 mb - 0.00 in0.0 mm 0.15 in3.8 mm
04:00 PM 36.9°F2.7°C 22.6°F-5.2°C 56% 12.7 mph NW20.4 kmh NW 16.1 mph25.9 kmh 29.75 in1007.5 mb - 0.00 in0.0 mm 0.15 in3.8 mm
04:10 PM 36.8°F2.7°C 23.0°F-5.0°C 57% 9.2 mph NW14.8 kmh NW 13.8 mph22.2 kmh 29.75 in1007.5 mb - 0.00 in0.0 mm 0.15 in3.8 mm
04:20 PM 36.7°F2.6°C 22.5°F-5.3°C 56% 10.4 mph NW16.7 kmh NW 12.7 mph20.4 kmh 29.75 in1007.5 mb - 0.00 in0.0 mm 0.15 in3.8 mm
04:30 PM 36.9°F2.7°C 22.7°F-5.2°C 56% 4.6 mph NW7.4 kmh NW 8.1 mph13.0 kmh 29.75 in1007.5 mb - 0.00 in0.0 mm 0.15 in3.8 mm
04:40 PM 36.9°F2.7°C 22.7°F-5.2°C 56% 10.4 mph NW16.7 kmh NW 11.5 mph18.5 kmh 29.75 in1007.5 mb - 0.00 in0.0 mm 0.15 in3.8 mm
04:50 PM 36.6°F2.6°C 23.2°F-4.9°C 58% 12.7 mph NW20.4 kmh NW 19.6 mph31.5 kmh 29.75 in1007.5 mb - 0.00 in0.0 mm 0.15 in3.8 mm
05:00 PM 36.5°F2.5°C 23.1°F-4.9°C 58% 6.9 mph WNW11.1 kmh WNW 18.4 mph29.6 kmh 29.75 in1007.5 mb - 0.00 in0.0 mm 0.15 in3.8 mm
05:10 PM 36.4°F2.4°C 23.0°F-5.0°C 58% 9.2 mph WNW14.8 kmh WNW 11.5 mph18.5 kmh 29.76 in1007.8 mb - 0.00 in0.0 mm 0.15 in3.8 mm
05:20 PM 36.6°F2.6°C 23.2°F-4.9°C 58% 5.8 mph WNW9.3 kmh WNW 10.4 mph16.7 kmh 29.76 in1007.8 mb - 0.00 in0.0 mm 0.15 in3.8 mm
05:30 PM 36.8°F2.7°C 23.4°F-4.8°C 58% 13.8 mph WNW22.2 kmh WNW 18.4 mph29.6 kmh 29.76 in1007.8 mb - 0.00 in0.0 mm 0.15 in3.8 mm
05:40 PM 36.6°F2.6°C 21.9°F-5.6°C 55% 10.4 mph NW16.7 kmh NW 15.0 mph24.1 kmh 29.76 in1007.8 mb - 0.00 in0.0 mm 0.15 in3.8 mm
05:50 PM 36.5°F2.5°C 21.4°F-5.9°C 54% 10.4 mph NW16.7 kmh NW 15.0 mph24.1 kmh 29.76 in1007.8 mb - 0.00 in0.0 mm 0.15 in3.8 mm
06:00 PM 36.7°F2.6°C 21.6°F-5.8°C 54% 8.1 mph NW13.0 kmh NW 11.5 mph18.5 kmh 29.76 in1007.8 mb - 0.00 in0.0 mm 0.15 in3.8 mm
06:10 PM 37.4°F3.0°C 22.7°F-5.2°C 55% 5.8 mph WNW9.3 kmh WNW 10.4 mph16.7 kmh 29.77 in1008.1 mb - 0.00 in0.0 mm 0.15 in3.8 mm
06:20 PM 37.3°F2.9°C 21.7°F-5.7°C 53% 9.2 mph NNW14.8 kmh NNW 11.5 mph18.5 kmh 29.77 in1008.1 mb - 0.00 in0.0 mm 0.15 in3.8 mm
06:30 PM 36.9°F2.7°C 21.8°F-5.7°C 54% 5.8 mph WNW9.3 kmh WNW 9.2 mph14.8 kmh 29.77 in1008.1 mb - 0.00 in0.0 mm 0.15 in3.8 mm
06:40 PM 36.3°F2.4°C 21.6°F-5.8°C 55% 8.1 mph WNW13.0 kmh WNW 8.1 mph13.0 kmh 29.77 in1008.1 mb - 0.00 in0.0 mm 0.15 in3.8 mm
06:50 PM 35.5°F1.9°C 20.9°F-6.2°C 55% 6.9 mph WNW11.1 kmh WNW 11.5 mph18.5 kmh 29.77 in1008.1 mb - 0.00 in0.0 mm 0.15 in3.8 mm
07:00 PM 35.1°F1.7°C 21.8°F-5.7°C 58% 4.6 mph WNW7.4 kmh WNW 9.2 mph14.8 kmh 29.77 in1008.1 mb - 0.00 in0.0 mm 0.15 in3.8 mm
07:10 PM 34.7°F1.5°C 21.8°F-5.7°C 59% 5.8 mph NW9.3 kmh NW 8.1 mph13.0 kmh 29.77 in1008.1 mb - 0.00 in0.0 mm 0.15 in3.8 mm
07:20 PM 34.2°F1.2°C 21.7°F-5.7°C 60% 3.5 mph NW5.6 kmh NW 3.5 mph5.6 kmh 29.77 in1008.1 mb - 0.00 in0.0 mm 0.15 in3.8 mm
07:30 PM 33.8°F1.0°C 21.8°F-5.7°C 61% 2.3 mph NW3.7 kmh NW 3.5 mph5.6 kmh 29.77 in1008.1 mb - 0.00 in0.0 mm 0.15 in3.8 mm
07:40 PM 33.4°F0.8°C 22.5°F-5.3°C 64% 2.3 mph W3.7 kmh W 5.8 mph9.3 kmh 29.77 in1008.1 mb - 0.00 in0.0 mm 0.15 in3.8 mm
07:50 PM 32.8°F0.4°C 21.6°F-5.8°C 63% 5.8 mph WNW9.3 kmh WNW 9.2 mph14.8 kmh 29.77 in1008.1 mb - 0.00 in0.0 mm 0.15 in3.8 mm
08:00 PM 32.6°F0.3°C 21.8°F-5.7°C 64% 3.5 mph W5.6 kmh W 6.9 mph11.1 kmh 29.77 in1008.1 mb - 0.00 in0.0 mm 0.15 in3.8 mm
08:10 PM 32.4°F0.2°C 21.2°F-6.0°C 63% 4.6 mph W7.4 kmh W 3.5 mph5.6 kmh 29.78 in1008.5 mb - 0.00 in0.0 mm 0.15 in3.8 mm
08:20 PM 32.3°F0.2°C 21.1°F-6.1°C 63% 3.5 mph WSW5.6 kmh WSW 3.5 mph5.6 kmh 29.78 in1008.5 mb - 0.00 in0.0 mm 0.15 in3.8 mm
08:30 PM 32.2°F0.1°C 21.3°F-5.9°C 64% 4.6 mph W7.4 kmh W 8.1 mph13.0 kmh 29.78 in1008.5 mb - 0.00 in0.0 mm 0.15 in3.8 mm
08:40 PM 32.0°F0.0°C 20.8°F-6.2°C 63% 2.3 mph WSW3.7 kmh WSW 3.5 mph5.6 kmh 29.78 in1008.5 mb - 0.00 in0.0 mm 0.15 in3.8 mm
08:50 PM 31.9°F-0.1°C 21.1°F-6.1°C 64% 8.1 mph W13.0 kmh W 9.2 mph14.8 kmh 29.78 in1008.5 mb - 0.00 in0.0 mm 0.15 in3.8 mm
09:00 PM 32.3°F0.2°C 21.8°F-5.7°C 65% 6.9 mph W11.1 kmh W 6.9 mph11.1 kmh 29.78 in1008.5 mb - 0.00 in0.0 mm 0.15 in3.8 mm
09:10 PM 32.6°F0.3°C 22.1°F-5.5°C 65% 6.9 mph W11.1 kmh W 8.1 mph13.0 kmh 29.78 in1008.5 mb - 0.00 in0.0 mm 0.15 in3.8 mm
09:20 PM 32.8°F0.4°C 22.3°F-5.4°C 65% 5.8 mph W9.3 kmh W 11.5 mph18.5 kmh 29.78 in1008.5 mb - 0.00 in0.0 mm 0.15 in3.8 mm
09:30 PM 33.0°F0.6°C 22.5°F-5.3°C 65% 5.8 mph W9.3 kmh W 8.1 mph13.0 kmh 29.78 in1008.5 mb - 0.00 in0.0 mm 0.15 in3.8 mm
09:40 PM 33.1°F0.6°C 22.6°F-5.2°C 65% 8.1 mph WNW13.0 kmh WNW 9.2 mph14.8 kmh 29.78 in1008.5 mb - 0.00 in0.0 mm 0.15 in3.8 mm
09:50 PM 32.9°F0.5°C 22.8°F-5.1°C 66% 10.4 mph W16.7 kmh W 12.7 mph20.4 kmh 29.78 in1008.5 mb - 0.00 in0.0 mm 0.15 in3.8 mm
10:00 PM 32.8°F0.4°C 23.4°F-4.8°C 68% 6.9 mph WSW11.1 kmh WSW 9.2 mph14.8 kmh 29.78 in1008.5 mb - 0.00 in0.0 mm 0.15 in3.8 mm
10:20 PM 32.1°F0.1°C 23.4°F-4.8°C 70% 4.6 mph WSW7.4 kmh WSW 3.5 mph5.6 kmh 29.78 in1008.5 mb - 0.00 in0.0 mm 0.15 in3.8 mm
10:30 PM 31.8°F-0.1°C 23.1°F-4.9°C 70% 4.6 mph W7.4 kmh W 6.9 mph11.1 kmh 29.77 in1008.1 mb - 0.00 in0.0 mm 0.15 in3.8 mm
10:40 PM 31.5°F-0.3°C 23.2°F-4.9°C 71% 6.9 mph W11.1 kmh W 9.2 mph14.8 kmh 29.77 in1008.1 mb - 0.00 in0.0 mm 0.15 in3.8 mm
10:50 PM 31.6°F-0.2°C 23.3°F-4.8°C 71% 8.1 mph W13.0 kmh W 9.2 mph14.8 kmh 29.77 in1008.1 mb - 0.00 in0.0 mm 0.15 in3.8 mm
11:00 PM 31.6°F-0.2°C 23.3°F-4.8°C 71% 6.9 mph W11.1 kmh W 9.2 mph14.8 kmh 29.77 in1008.1 mb - 0.00 in0.0 mm 0.15 in3.8 mm
11:10 PM 31.4°F-0.3°C 23.1°F-4.9°C 71% 5.8 mph W9.3 kmh W 8.1 mph13.0 kmh 29.77 in1008.1 mb - 0.00 in0.0 mm 0.15 in3.8 mm
11:20 PM 31.1°F-0.5°C 22.8°F-5.1°C 71% 4.6 mph W7.4 kmh W 8.1 mph13.0 kmh 29.77 in1008.1 mb - 0.00 in0.0 mm 0.15 in3.8 mm
11:30 PM 31.0°F-0.6°C 22.7°F-5.2°C 71% 3.5 mph WSW5.6 kmh WSW 5.8 mph9.3 kmh 29.77 in1008.1 mb - 0.00 in0.0 mm 0.15 in3.8 mm
11:40 PM 30.8°F-0.7°C 22.8°F-5.1°C 72% 3.5 mph W5.6 kmh W 4.6 mph7.4 kmh 29.77 in1008.1 mb - 0.00 in0.0 mm 0.15 in3.8 mm
11:50 PM 30.6°F-0.8°C 23.0°F-5.0°C 73% 4.6 mph WSW7.4 kmh WSW 5.8 mph9.3 kmh 29.76 in1007.8 mb - 0.00 in0.0 mm 0.15 in3.8 mm